createdAt,value
2019-05-25T00:00:31.715Z,99.90
2019-05-25T00:03:01.682Z,99.90
2019-05-25T00:05:31.486Z,99.90
2019-05-25T00:08:01.262Z,99.90
2019-05-25T00:10:31.367Z,99.90
2019-05-25T00:13:01.055Z,99.90
2019-05-25T00:15:30.995Z,99.90
2019-05-25T00:18:00.795Z,99.90
2019-05-25T00:20:30.619Z,99.90
2019-05-25T00:23:00.827Z,99.90
2019-05-25T00:25:30.723Z,99.90
2019-05-25T00:28:00.451Z,99.90
2019-05-25T00:30:30.348Z,99.90
2019-05-25T00:33:00.425Z,99.90
2019-05-25T00:35:30.246Z,99.90
2019-05-25T00:38:00.163Z,99.90
2019-05-25T00:40:29.972Z,99.90
2019-05-25T00:42:59.822Z,99.90
2019-05-25T00:45:29.890Z,99.90
2019-05-25T00:47:59.771Z,99.90
2019-05-25T00:50:29.937Z,99.90
2019-05-25T00:52:59.739Z,99.90
2019-05-25T00:55:34.418Z,99.90
2019-05-25T00:58:04.222Z,99.90
2019-05-25T01:00:34.104Z,99.90
2019-05-25T01:03:04.183Z,99.90
2019-05-25T01:05:33.983Z,99.90
2019-05-25T01:08:04.008Z,99.90
2019-05-25T01:10:33.764Z,99.90
2019-05-25T01:13:03.534Z,99.90
2019-05-25T01:15:33.447Z,99.90
2019-05-25T01:18:03.223Z,99.90
2019-05-25T01:20:33.311Z,99.90
2019-05-25T01:23:03.654Z,99.90
2019-05-25T01:25:33.540Z,99.90
2019-05-25T01:28:03.545Z,99.90
2019-05-25T01:30:33.683Z,99.90
2019-05-25T01:33:04.904Z,99.90
2019-05-25T01:35:34.643Z,99.90
2019-05-25T01:38:04.463Z,99.90
2019-05-25T01:40:34.264Z,99.90
2019-05-25T01:43:04.043Z,99.90
2019-05-25T01:45:34.068Z,99.90
2019-05-25T01:48:03.903Z,99.90
2019-05-25T01:50:34.222Z,99.90
2019-05-25T01:53:04.338Z,99.90
2019-05-25T01:55:34.710Z,99.90
2019-05-25T01:58:04.469Z,99.90
2019-05-25T02:00:34.674Z,99.90
2019-05-25T02:03:04.622Z,99.90
2019-05-25T02:05:34.349Z,99.90
2019-05-25T02:08:04.415Z,99.90
2019-05-25T02:10:34.427Z,99.90
2019-05-25T02:13:04.298Z,99.90
2019-05-25T02:15:34.207Z,99.90
2019-05-25T02:18:04.242Z,99.90
2019-05-25T02:20:34.091Z,99.90
2019-05-25T02:23:04.094Z,99.90
2019-05-25T02:25:33.975Z,99.90
2019-05-25T02:28:03.787Z,99.90
2019-05-25T02:30:33.654Z,99.90
2019-05-25T02:33:03.362Z,99.90
2019-05-25T02:35:33.219Z,99.90
2019-05-25T02:38:03.083Z,99.90
2019-05-25T02:40:32.907Z,99.90
2019-05-25T02:43:02.621Z,99.90
2019-05-25T02:45:32.631Z,99.90
2019-05-25T02:48:02.441Z,99.90
2019-05-25T02:50:32.303Z,99.90
2019-05-25T02:53:02.331Z,99.90
2019-05-25T02:55:34.681Z,99.90
2019-05-25T02:58:03.750Z,99.90
2019-05-25T03:00:34.652Z,99.90
2019-05-25T03:03:04.794Z,99.90
2019-05-25T03:05:35.347Z,99.90
2019-05-25T03:08:05.211Z,99.90
2019-05-25T03:10:36.361Z,99.90
2019-05-25T03:13:06.814Z,99.90
2019-05-25T03:15:36.956Z,99.90
2019-05-25T03:18:06.739Z,99.90
2019-05-25T03:20:36.466Z,99.90
2019-05-25T03:23:06.426Z,99.90
2019-05-25T03:25:48.612Z,99.90
2019-05-25T03:28:07.713Z,99.90
2019-05-25T03:30:38.124Z,99.90
2019-05-25T03:33:07.956Z,99.90
2019-05-25T03:35:37.850Z,99.90
2019-05-25T03:38:07.927Z,99.90
2019-05-25T03:40:37.826Z,99.90
2019-05-25T03:43:07.606Z,99.90
2019-05-25T03:45:37.467Z,99.90
2019-05-25T03:48:07.678Z,99.90
2019-05-25T03:50:37.474Z,99.90
2019-05-25T03:53:07.412Z,99.90
2019-05-25T03:55:37.518Z,99.90
2019-05-25T03:58:07.623Z,99.90
2019-05-25T04:00:37.992Z,99.90
2019-05-25T04:03:07.889Z,99.90
2019-05-25T04:05:37.774Z,99.90
2019-05-25T04:08:07.814Z,99.90
2019-05-25T04:10:39.032Z,99.90
2019-05-25T04:13:08.972Z,99.90
2019-05-25T04:15:38.725Z,99.90
2019-05-25T04:18:08.788Z,99.90
2019-05-25T04:20:39.011Z,99.90
2019-05-25T04:23:08.771Z,99.90
2019-05-25T04:25:39.468Z,99.90
2019-05-25T04:28:09.241Z,99.90
2019-05-25T04:30:40.015Z,99.90
2019-05-25T04:33:09.796Z,99.90
2019-05-25T04:35:39.522Z,99.90
2019-05-25T04:38:09.331Z,99.90
2019-05-25T04:40:39.523Z,99.90
2019-05-25T04:43:09.487Z,99.90
2019-05-25T04:45:39.293Z,99.90
2019-05-25T04:48:09.255Z,99.90
2019-05-25T04:50:38.985Z,99.90
2019-05-25T04:53:08.713Z,99.90
2019-05-25T04:55:38.745Z,99.90
2019-05-25T04:58:08.539Z,99.90
2019-05-25T05:00:38.539Z,99.90
2019-05-25T05:03:08.560Z,99.90
2019-05-25T05:05:38.378Z,99.90
2019-05-25T05:08:08.178Z,99.90
2019-05-25T05:10:37.947Z,99.90
2019-05-25T05:13:07.757Z,99.90
2019-05-25T05:15:37.585Z,99.90
2019-05-25T05:18:07.503Z,99.90
2019-05-25T05:20:37.210Z,99.90
2019-05-25T05:23:07.034Z,99.90
2019-05-25T05:25:36.815Z,99.90
2019-05-25T05:28:06.610Z,99.90
2019-05-25T05:30:36.481Z,99.90
2019-05-25T05:33:06.308Z,99.90
2019-05-25T05:35:39.050Z,99.90
2019-05-25T05:38:08.807Z,99.90
2019-05-25T05:40:38.865Z,99.90
2019-05-25T05:43:12.159Z,99.90
2019-05-25T05:45:43.527Z,99.90
2019-05-25T05:48:13.978Z,99.90
2019-05-25T05:50:46.262Z,99.90
2019-05-25T05:53:18.803Z,99.90
2019-05-25T05:55:57.048Z,99.90
2019-05-25T05:58:26.788Z,99.90
2019-05-25T06:01:00.278Z,99.90
2019-05-25T06:03:30.168Z,99.90
2019-05-25T06:06:00.058Z,99.90
2019-05-25T06:08:29.767Z,99.90
2019-05-25T06:10:59.809Z,99.90
2019-05-25T06:13:29.783Z,99.90
2019-05-25T06:15:59.575Z,99.90
2019-05-25T06:18:29.351Z,99.90
2019-05-25T06:20:59.317Z,99.90
2019-05-25T06:23:29.054Z,99.90
2019-05-25T06:25:59.056Z,99.90
2019-05-25T06:28:29.185Z,99.90
2019-05-25T06:30:59.227Z,99.90
2019-05-25T06:33:29.019Z,99.90
2019-05-25T06:35:58.830Z,99.90
2019-05-25T06:38:29.090Z,99.90
2019-05-25T06:40:59.121Z,99.90
2019-05-25T06:43:28.918Z,99.90
2019-05-25T06:45:58.678Z,99.90
2019-05-25T06:48:28.710Z,99.90
2019-05-25T06:50:58.479Z,99.90
2019-05-25T06:53:28.195Z,99.90
2019-05-25T06:55:58.321Z,99.90
2019-05-25T06:58:28.136Z,99.90
2019-05-25T07:00:57.866Z,99.90
2019-05-25T07:03:27.567Z,99.90
2019-05-25T07:05:57.309Z,99.90
2019-05-25T07:08:26.986Z,99.90
2019-05-25T07:10:56.719Z,99.90
2019-05-25T07:13:28.508Z,99.90
2019-05-25T07:15:58.261Z,99.90
2019-05-25T07:18:28.248Z,99.90
2019-05-25T07:20:58.296Z,99.90
2019-05-25T07:23:28.071Z,99.90
2019-05-25T07:25:57.968Z,99.90
2019-05-25T07:28:28.013Z,99.90
2019-05-25T07:30:57.782Z,99.90
2019-05-25T07:33:28.150Z,99.90
2019-05-25T07:35:58.128Z,99.90
2019-05-25T07:38:27.922Z,99.90
2019-05-25T07:40:57.705Z,99.90
2019-05-25T07:43:27.529Z,99.90
2019-05-25T07:45:57.615Z,99.90
2019-05-25T07:48:29.342Z,99.90
2019-05-25T07:51:03.219Z,99.90
2019-05-25T07:53:33.296Z,99.90
2019-05-25T07:56:03.467Z,99.90
2019-05-25T07:58:33.348Z,99.90
2019-05-25T08:01:03.379Z,99.90
2019-05-25T08:03:33.766Z,99.90
2019-05-25T08:06:03.739Z,99.90
2019-05-25T08:08:33.859Z,99.90
2019-05-25T08:11:03.723Z,99.90
2019-05-25T08:13:33.659Z,99.90
2019-05-25T08:16:03.548Z,99.90
2019-05-25T08:18:33.530Z,99.90
2019-05-25T08:21:04.371Z,99.90
2019-05-25T08:23:34.406Z,99.90
2019-05-25T08:26:04.319Z,99.90
2019-05-25T08:28:34.974Z,99.90
2019-05-25T08:31:04.760Z,99.90
2019-05-25T08:33:34.599Z,99.90
2019-05-25T08:36:04.472Z,99.90
2019-05-25T08:38:34.608Z,99.90
2019-05-25T08:41:04.507Z,99.90
2019-05-25T08:43:34.452Z,99.90
2019-05-25T08:46:04.588Z,99.90
2019-05-25T08:48:34.674Z,99.90
2019-05-25T08:51:04.613Z,99.90
2019-05-25T08:53:41.315Z,99.90
2019-05-25T08:56:06.215Z,99.90
2019-05-25T08:58:47.896Z,99.90
2019-05-25T09:01:08.299Z,99.90
2019-05-25T09:03:38.235Z,99.90
2019-05-25T09:06:07.962Z,99.20
2019-05-25T09:08:38.151Z,99.90
2019-05-25T09:11:08.139Z,99.90
2019-05-25T09:13:38.055Z,99.10
2019-05-25T09:16:07.878Z,96.50
2019-05-25T09:18:38.771Z,93.80
2019-05-25T09:21:08.719Z,95.20
2019-05-25T09:23:38.819Z,95.70
2019-05-25T09:26:08.713Z,93.70
2019-05-25T09:28:38.506Z,93.70
2019-05-25T09:31:08.356Z,92.00
2019-05-25T09:33:39.517Z,92.60
2019-05-25T09:36:09.383Z,92.70
2019-05-25T09:38:43.048Z,90.70
2019-05-25T09:41:11.113Z,90.80
2019-05-25T09:43:41.179Z,90.00
2019-05-25T09:46:11.326Z,90.20
2019-05-25T09:48:41.205Z,89.30
2019-05-25T09:51:28.788Z,82.90
2019-05-25T09:53:58.919Z,85.30
2019-05-25T09:56:28.783Z,79.20
2019-05-25T09:58:59.370Z,80.10
2019-05-25T10:01:29.407Z,81.60
2019-05-25T10:03:59.268Z,76.40
2019-05-25T10:06:29.139Z,78.80
2019-05-25T10:08:58.923Z,71.30
2019-05-25T10:11:29.081Z,72.20
2019-05-25T10:13:59.248Z,70.80
2019-05-25T10:16:29.300Z,69.80
2019-05-25T10:18:59.091Z,68.40
2019-05-25T10:21:29.222Z,67.80
2019-05-25T10:23:59.093Z,67.00
2019-05-25T10:26:28.821Z,66.00
2019-05-25T10:28:58.535Z,66.40
2019-05-25T10:31:28.549Z,63.90
2019-05-25T10:33:58.546Z,64.60
2019-05-25T10:36:28.583Z,65.50
2019-05-25T10:38:58.339Z,75.60
2019-05-25T10:41:28.341Z,84.80
2019-05-25T10:43:58.443Z,90.20
2019-05-25T10:46:28.325Z,92.30
2019-05-25T10:48:58.498Z,92.00
2019-05-25T10:51:28.383Z,93.70
2019-05-25T10:53:58.203Z,94.30
2019-05-25T10:56:27.937Z,93.60
2019-05-25T10:58:57.849Z,94.30
2019-05-25T11:01:27.887Z,94.80
2019-05-25T11:03:57.730Z,95.80
2019-05-25T11:06:27.749Z,96.50
2019-05-25T11:08:57.811Z,96.30
2019-05-25T11:11:27.786Z,95.50
2019-05-25T11:13:57.755Z,95.40
2019-05-25T11:16:27.481Z,95.60
2019-05-25T11:18:57.235Z,94.50
2019-05-25T11:21:27.037Z,92.90
2019-05-25T11:23:56.714Z,92.10
2019-05-25T11:26:26.535Z,91.00
2019-05-25T11:28:56.621Z,89.50
2019-05-25T11:31:26.740Z,88.10
2019-05-25T11:33:56.653Z,85.20
2019-05-25T11:36:26.460Z,82.00
2019-05-25T11:38:56.268Z,87.20
2019-05-25T11:41:26.084Z,86.50
2019-05-25T11:43:55.867Z,84.00
2019-05-25T11:46:25.635Z,83.90
2019-05-25T11:48:55.627Z,81.30
2019-05-25T11:51:25.730Z,82.20
2019-05-25T11:53:55.495Z,83.20
2019-05-25T11:56:25.229Z,83.30
2019-05-25T11:58:55.326Z,83.50
2019-05-25T12:01:25.151Z,83.10
2019-05-25T12:03:55.230Z,82.40
2019-05-25T12:06:25.326Z,83.00
2019-05-25T12:08:55.608Z,82.90
2019-05-25T12:11:25.439Z,82.90
2019-05-25T12:13:55.539Z,81.10
2019-05-25T12:16:25.387Z,80.70
2019-05-25T12:18:55.169Z,77.80
2019-05-25T12:21:25.031Z,75.40
2019-05-25T12:23:54.837Z,75.80
2019-05-25T12:26:24.803Z,75.90
2019-05-25T12:28:54.511Z,77.60
2019-05-25T12:31:24.530Z,78.80
2019-05-25T12:33:54.458Z,80.00
2019-05-25T12:36:24.274Z,80.80
2019-05-25T12:38:54.100Z,77.20
2019-05-25T12:41:24.475Z,80.20
2019-05-25T12:43:54.222Z,80.70
2019-05-25T12:46:24.806Z,79.50
2019-05-25T12:48:55.583Z,81.40
2019-05-25T12:51:25.517Z,81.50
2019-05-25T12:53:55.346Z,80.70
2019-05-25T12:56:25.135Z,80.70
2019-05-25T12:58:54.872Z,81.00
2019-05-25T13:01:24.741Z,80.00
2019-05-25T13:03:54.813Z,79.80
2019-05-25T13:06:24.673Z,80.80
2019-05-25T13:08:54.390Z,82.60
2019-05-25T13:11:24.741Z,85.40
2019-05-25T13:13:54.543Z,90.30
2019-05-25T13:16:24.333Z,92.10
2019-05-25T13:18:54.066Z,93.50
2019-05-25T13:21:24.098Z,95.80
2019-05-25T13:23:53.856Z,97.40
2019-05-25T13:26:23.834Z,99.40
2019-05-25T13:28:53.986Z,99.90
2019-05-25T13:31:24.666Z,99.90
2019-05-25T13:33:54.741Z,99.90
2019-05-25T13:36:25.037Z,99.90
2019-05-25T13:38:54.884Z,99.90
2019-05-25T13:41:24.859Z,99.90
2019-05-25T13:43:55.177Z,99.90
2019-05-25T13:46:24.923Z,99.90
2019-05-25T13:48:55.069Z,99.90
2019-05-25T13:51:25.123Z,99.90
2019-05-25T13:53:54.863Z,99.90
2019-05-25T13:56:24.722Z,99.90
2019-05-25T13:58:54.520Z,99.90
2019-05-25T14:01:28.463Z,99.90
2019-05-25T14:03:56.126Z,99.90
2019-05-25T14:06:25.998Z,99.90
2019-05-25T14:08:56.061Z,99.90
2019-05-25T14:11:25.863Z,99.90
2019-05-25T14:13:55.689Z,99.90
2019-05-25T14:16:25.528Z,99.00
2019-05-25T14:18:55.316Z,98.80
2019-05-25T14:21:25.105Z,99.50
2019-05-25T14:23:54.902Z,99.20
2019-05-25T14:26:24.905Z,99.30
2019-05-25T14:28:55.034Z,99.10
2019-05-25T14:31:24.773Z,99.40
2019-05-25T14:33:54.566Z,99.50
2019-05-25T14:36:24.480Z,99.20
2019-05-25T14:38:54.255Z,97.50
2019-05-25T14:41:24.074Z,97.50
2019-05-25T14:43:53.930Z,97.60
2019-05-25T14:46:27.867Z,95.80
2019-05-25T14:48:55.175Z,95.60
2019-05-25T14:51:25.379Z,95.60
2019-05-25T14:53:55.367Z,95.30
2019-05-25T14:56:25.150Z,95.80
2019-05-25T14:58:54.888Z,96.30
2019-05-25T15:01:24.966Z,96.50
2019-05-25T15:03:54.976Z,97.40
2019-05-25T15:06:24.746Z,99.30
2019-05-25T15:08:54.915Z,99.90
2019-05-25T15:11:24.790Z,99.90
2019-05-25T15:13:54.962Z,99.90
2019-05-25T15:16:25.127Z,99.90
2019-05-25T15:18:55.082Z,99.90
2019-05-25T15:21:25.382Z,99.90
2019-05-25T15:23:55.858Z,99.90
2019-05-25T15:26:26.080Z,99.90
2019-05-25T15:28:55.803Z,99.90
2019-05-25T15:31:26.869Z,99.90
2019-05-25T15:33:56.627Z,99.90
2019-05-25T15:36:26.550Z,99.90
2019-05-25T15:38:56.293Z,99.90
2019-05-25T15:41:26.030Z,99.90
2019-05-25T15:43:55.947Z,99.90
2019-05-25T15:46:25.644Z,99.90
2019-05-25T15:48:55.988Z,99.90
2019-05-25T15:51:25.850Z,99.90
2019-05-25T15:53:55.584Z,99.90
2019-05-25T15:56:25.444Z,99.90
2019-05-25T15:58:55.162Z,99.90
2019-05-25T16:01:25.216Z,99.90
2019-05-25T16:03:55.053Z,99.90
2019-05-25T16:06:25.104Z,99.90
2019-05-25T16:08:55.071Z,99.90
2019-05-25T16:11:25.191Z,99.90
2019-05-25T16:13:54.991Z,99.90
2019-05-25T16:16:29.994Z,99.90
2019-05-25T16:18:56.514Z,99.90
2019-05-25T16:21:26.512Z,99.90
2019-05-25T16:23:56.386Z,99.90
2019-05-25T16:26:26.367Z,99.90
2019-05-25T16:28:56.137Z,99.90
2019-05-25T16:31:26.188Z,99.90
2019-05-25T16:33:56.086Z,99.90
2019-05-25T16:36:25.798Z,99.90
2019-05-25T16:38:56.084Z,99.90
2019-05-25T16:41:25.871Z,99.90
2019-05-25T16:43:55.655Z,99.90
2019-05-25T16:46:25.483Z,99.90
2019-05-25T16:48:55.332Z,99.90
2019-05-25T16:51:25.780Z,99.90
2019-05-25T16:53:55.714Z,99.90
2019-05-25T16:56:25.624Z,99.90
2019-05-25T16:58:55.619Z,99.90
2019-05-25T17:01:25.458Z,99.90
2019-05-25T17:03:55.175Z,99.90
2019-05-25T17:06:24.905Z,99.90
2019-05-25T17:08:56.398Z,99.90
2019-05-25T17:11:26.259Z,99.90
2019-05-25T17:13:56.458Z,99.90
2019-05-25T17:16:27.507Z,99.90
2019-05-25T17:18:57.239Z,99.90
2019-05-25T17:21:26.933Z,99.90
2019-05-25T17:23:56.914Z,99.90
2019-05-25T17:26:26.751Z,99.90
2019-05-25T17:28:56.716Z,99.90
2019-05-25T17:31:26.503Z,99.90
2019-05-25T17:33:56.875Z,99.90
2019-05-25T17:36:26.683Z,99.90
2019-05-25T17:38:56.689Z,99.90
2019-05-25T17:41:26.379Z,99.90
2019-05-25T17:43:56.078Z,99.90
2019-05-25T17:46:25.833Z,99.90
2019-05-25T17:48:55.591Z,99.90
2019-05-25T17:51:25.286Z,99.90
2019-05-25T17:53:55.100Z,99.90
2019-05-25T17:56:24.923Z,99.90
2019-05-25T17:58:55.332Z,99.90
2019-05-25T18:01:25.107Z,99.90
2019-05-25T18:04:06.304Z,99.90
2019-05-25T18:06:26.399Z,99.90
2019-05-25T18:08:56.238Z,99.90
2019-05-25T18:11:25.955Z,99.90
2019-05-25T18:13:55.924Z,99.90
2019-05-25T18:16:25.631Z,99.90
2019-05-25T18:18:55.606Z,99.90
2019-05-25T18:21:25.578Z,99.90
2019-05-25T18:23:55.370Z,99.90
2019-05-25T18:26:25.507Z,99.90
2019-05-25T18:28:55.348Z,99.90
2019-05-25T18:31:25.167Z,99.90
2019-05-25T18:33:55.237Z,99.90
2019-05-25T18:36:25.304Z,99.90
2019-05-25T18:38:55.161Z,99.90
2019-05-25T18:41:25.213Z,99.90
2019-05-25T18:43:54.886Z,99.90
2019-05-25T18:46:24.630Z,99.90
2019-05-25T18:48:54.649Z,99.90
2019-05-25T18:51:24.385Z,99.90
2019-05-25T18:53:55.263Z,99.90
2019-05-25T18:56:25.079Z,99.90
2019-05-25T18:58:54.811Z,99.90
2019-05-25T19:01:24.544Z,99.90
2019-05-25T19:03:54.357Z,99.90
2019-05-25T19:06:24.143Z,99.90
2019-05-25T19:08:54.250Z,99.90
2019-05-25T19:11:25.188Z,99.90
2019-05-25T19:13:54.927Z,99.90
2019-05-25T19:16:24.681Z,99.90
2019-05-25T19:18:54.410Z,99.90
2019-05-25T19:21:24.188Z,99.90
2019-05-25T19:23:53.987Z,99.90
2019-05-25T19:26:23.758Z,99.90
2019-05-25T19:28:53.716Z,99.90
2019-05-25T19:31:23.842Z,99.90
2019-05-25T19:33:53.846Z,99.90
2019-05-25T19:36:23.920Z,99.90
2019-05-25T19:38:54.045Z,99.90
2019-05-25T19:41:23.864Z,99.90
2019-05-25T19:43:53.642Z,99.90
2019-05-25T19:46:23.541Z,99.90
2019-05-25T19:48:53.247Z,99.90
2019-05-25T19:51:23.267Z,99.90
2019-05-25T19:53:52.957Z,99.90
2019-05-25T19:56:22.793Z,99.90
2019-05-25T19:58:52.703Z,99.90
2019-05-25T20:01:22.623Z,99.90
2019-05-25T20:03:52.456Z,99.90
2019-05-25T20:06:22.511Z,99.90
2019-05-25T20:08:52.478Z,99.90
2019-05-25T20:11:22.482Z,99.90
2019-05-25T20:13:52.263Z,99.90
2019-05-25T20:16:24.880Z,99.90
2019-05-25T20:18:53.435Z,99.90
2019-05-25T20:21:23.486Z,99.90
2019-05-25T20:23:53.535Z,99.90
2019-05-25T20:26:23.305Z,99.90
2019-05-25T20:28:53.025Z,99.90
2019-05-25T20:31:22.739Z,99.90
2019-05-25T20:33:52.582Z,99.90
2019-05-25T20:36:22.422Z,99.90
2019-05-25T20:38:52.638Z,99.90
2019-05-25T20:41:22.368Z,99.90
2019-05-25T20:43:52.321Z,99.90
2019-05-25T20:46:22.263Z,99.90
2019-05-25T20:48:51.974Z,99.90
2019-05-25T20:51:22.056Z,99.90
2019-05-25T20:53:51.760Z,99.90
2019-05-25T20:56:21.476Z,99.90
2019-05-25T20:58:51.174Z,99.90
2019-05-25T21:01:20.947Z,99.90
2019-05-25T21:03:50.900Z,99.90
2019-05-25T21:06:20.750Z,99.90
2019-05-25T21:08:50.802Z,99.90
2019-05-25T21:11:20.925Z,99.90
2019-05-25T21:13:50.837Z,99.90
2019-05-25T21:16:20.638Z,99.90
2019-05-25T21:18:50.447Z,99.90
2019-05-25T21:21:20.172Z,99.90
2019-05-25T21:23:49.983Z,99.90
2019-05-25T21:26:20.198Z,99.90
2019-05-25T21:28:50.010Z,99.90
2019-05-25T21:31:23.613Z,99.90
2019-05-25T21:33:51.503Z,99.90
2019-05-25T21:36:21.350Z,99.90
2019-05-25T21:38:51.246Z,99.90
2019-05-25T21:41:22.087Z,99.90
2019-05-25T21:43:52.166Z,99.90
2019-05-25T21:46:22.134Z,99.90
2019-05-25T21:48:51.880Z,99.90
2019-05-25T21:51:21.848Z,99.90
2019-05-25T21:53:52.975Z,99.90
2019-05-25T21:56:22.954Z,99.90
2019-05-25T21:58:52.960Z,99.90
2019-05-25T22:01:23.104Z,99.90
2019-05-25T22:03:52.863Z,99.90
2019-05-25T22:06:24.531Z,99.90
2019-05-25T22:08:54.562Z,99.90
2019-05-25T22:11:24.465Z,99.90
2019-05-25T22:13:54.662Z,99.90
2019-05-25T22:16:24.921Z,99.90
2019-05-25T22:18:54.880Z,99.90
2019-05-25T22:21:24.609Z,99.90
2019-05-25T22:23:54.318Z,99.90
2019-05-25T22:26:24.333Z,99.90
2019-05-25T22:28:54.049Z,99.90
2019-05-25T22:31:24.026Z,99.90
2019-05-25T22:33:54.303Z,99.90
2019-05-25T22:36:39.194Z,99.90
2019-05-25T22:38:56.767Z,99.90
2019-05-25T22:41:26.474Z,99.90
2019-05-25T22:43:56.238Z,99.90
2019-05-25T22:46:26.026Z,99.90
2019-05-25T22:48:56.746Z,99.90
2019-05-25T22:51:27.055Z,99.90
2019-05-25T22:53:56.818Z,99.90
2019-05-25T22:56:26.624Z,99.90
2019-05-25T22:58:56.403Z,99.90
2019-05-25T23:01:26.148Z,99.90
2019-05-25T23:03:56.172Z,99.90
2019-05-25T23:06:26.494Z,99.90
2019-05-25T23:08:56.530Z,99.90
2019-05-25T23:11:26.503Z,99.90
2019-05-25T23:13:56.357Z,99.90
2019-05-25T23:16:26.366Z,99.90
2019-05-25T23:18:56.150Z,99.90
2019-05-25T23:21:25.862Z,99.90
2019-05-25T23:23:56.239Z,99.90
2019-05-25T23:26:26.266Z,99.90
2019-05-25T23:28:56.410Z,99.90
2019-05-25T23:31:26.417Z,99.90
2019-05-25T23:33:56.186Z,99.90
2019-05-25T23:36:26.749Z,99.90
2019-05-25T23:38:59.431Z,99.90
2019-05-25T23:41:29.954Z,99.90
2019-05-25T23:44:00.142Z,99.90
2019-05-25T23:46:30.618Z,99.90
2019-05-25T23:49:00.403Z,99.90
2019-05-25T23:51:30.245Z,99.90
2019-05-25T23:54:00.457Z,99.90
2019-05-25T23:56:30.416Z,99.90
2019-05-25T23:59:00.190Z,99.90
